Time;durP1;ratioP1;P1;durP2;ratioP2;P2;SDS_P1;SDS_P2;PMS_P1;PMS_P2;Temp;Humidity;BMP_temperature;BMP_pressure;BME280_temperature;BME280_humidity;BME280_pressure;Samples;Min_cycle;Max_cycle;Signal;HPM_P1;HPM_P2
2023/10/03 00:02:11;;;;;;;19.32;7.28;;;;;;;10.86;74.51;101119.54;1788402;80;21046;-70
2023/10/03 00:04:40;;;;;;;19.50;7.35;;;;;;;10.82;74.58;101122.83;1788156;80;21026;-70
2023/10/03 00:07:10;;;;;;;18.55;7.22;;;;;;;10.75;74.71;101125.44;1761118;80;21013;-70
2023/10/03 00:09:39;;;;;;;20.43;8.20;;;;;;;10.71;74.81;101131.80;1788134;80;21025;-72
2023/10/03 00:12:09;;;;;;;18.92;7.40;;;;;;;10.67;74.88;101130.97;1788240;80;21501;-70
2023/10/03 00:14:38;;;;;;;17.45;6.72;;;;;;;10.65;75.05;101128.92;1788275;80;21196;-71
2023/10/03 00:17:08;;;;;;;15.10;7.35;;;;;;;10.67;75.09;101131.83;1788255;80;21042;-71
2023/10/03 00:19:39;;;;;;;13.75;7.08;;;;;;;10.69;75.02;101127.53;1788104;80;21517;-72
2023/10/03 00:22:08;;;;;;;18.20;6.75;;;;;;;10.69;74.94;101133.88;1788222;80;21462;-71
2023/10/03 00:24:37;;;;;;;19.42;7.85;;;;;;;10.69;74.97;101131.64;1788227;80;21457;-72
2023/10/03 00:27:05;;;;;;;18.52;7.53;;;;;;;10.67;74.92;101136.45;1788426;80;21062;-71
2023/10/03 00:29:34;;;;;;;17.55;7.70;;;;;;;10.64;75.01;101134.08;1788573;80;21044;-71
2023/10/03 00:32:03;;;;;;;15.60;7.10;;;;;;;10.63;75.13;101135.96;1788387;79;21068;-71
2023/10/03 00:34:36;;;;;;;15.60;7.10;;;;;;;10.65;75.14;101134.41;1788363;80;21017;-72
2023/10/03 00:37:03;;;;;;;21.40;7.37;;;;;;;10.67;75.00;101131.83;1788337;79;21084;-70
2023/10/03 00:39:33;;;;;;;22.80;7.05;;;;;;;10.65;74.92;101134.41;1788398;80;21053;-70
2023/10/03 00:42:05;;;;;;;19.57;7.20;;;;;;;10.62;74.93;101131.52;1788145;79;21425;-71
2023/10/03 00:44:33;;;;;;;18.10;7.47;;;;;;;10.58;74.95;101124.69;1788307;80;21124;-70
2023/10/03 00:47:02;;;;;;;16.70;7.40;;;;;;;10.57;75.01;101124.87;1788214;80;21525;-71
2023/10/03 00:49:31;;;;;;;19.10;7.20;;;;;;;10.52;75.08;101129.52;1788380;80;21461;-69
2023/10/03 00:52:00;;;;;;;13.93;6.85;;;;;;;10.48;75.13;101130.39;1788472;80;21429;-70
2023/10/03 00:54:30;;;;;;;15.08;7.47;;;;;;;10.45;75.21;101126.64;1788125;79;22000;-70
2023/10/03 00:56:58;;;;;;;16.23;6.58;;;;;;;10.41;75.25;101126.66;1788534;79;21049;-71
2023/10/03 00:59:28;;;;;;;15.45;6.70;;;;;;;10.39;75.44;101124.59;1788268;80;21422;-72
2023/10/03 01:02:05;;;;;;;20.23;7.10;;;;;;;10.39;75.52;101134.17;1788417;79;21079;-71
2023/10/03 01:04:35;;;;;;;15.93;7.22;;;;;;;10.36;75.49;101130.42;1788445;79;21495;-71
2023/10/03 01:07:04;;;;;;;16.45;7.47;;;;;;;10.32;75.53;101127.70;1788190;80;21045;-70
2023/10/03 01:09:34;;;;;;;13.68;7.05;;;;;;;10.29;75.65;101125.32;1788334;80;21057;-70
2023/10/03 01:12:04;;;;;;;14.80;7.00;;;;;;;10.27;75.75;101121.91;1788325;80;21053;-71
2023/10/03 01:14:39;;;;;;;15.53;7.05;;;;;;;10.27;75.78;101123.27;1788215;80;21037;-70
2023/10/03 01:17:07;;;;;;;16.05;7.25;;;;;;;10.28;75.82;101126.35;1761442;80;21017;-70
2023/10/03 01:19:37;;;;;;;15.48;7.03;;;;;;;10.31;75.85;101123.25;1788332;80;20986;-72
2023/10/03 01:22:07;;;;;;;15.98;8.13;;;;;;;10.31;75.80;101123.25;1788319;79;21030;-72
2023/10/03 01:24:38;;;;;;;14.73;7.10;;;;;;;10.29;75.85;101122.58;1784943;80;21062;-71
2023/10/03 01:27:09;;;;;;;17.70;8.10;;;;;;;10.31;75.92;101123.25;1784619;80;21108;-71
2023/10/03 01:29:38;;;;;;;17.25;7.70;;;;;;;10.29;75.91;101122.58;1754327;80;21065;-72
2023/10/03 01:32:07;;;;;;;13.90;6.87;;;;;;;10.30;75.89;101117.44;1784536;80;21033;-71
2023/10/03 01:34:38;;;;;;;17.15;8.18;;;;;;;10.30;75.78;101113.33;1784872;80;21058;-71
2023/10/03 01:37:07;;;;;;;17.90;7.92;;;;;;;10.29;75.85;101114.36;1784606;80;21480;-69
2023/10/03 01:39:36;;;;;;;15.00;6.85;;;;;;;10.31;75.82;101111.44;1784875;79;21042;-71
2023/10/03 01:42:07;;;;;;;17.37;7.22;;;;;;;10.29;75.79;101117.10;1784607;80;21096;-70
2023/10/03 01:44:36;;;;;;;14.87;7.28;;;;;;;10.27;75.69;101112.83;1784809;80;21042;-71
2023/10/03 01:47:07;;;;;;;14.98;7.20;;;;;;;10.22;75.68;101112.52;1784586;80;21089;-70
2023/10/03 01:49:38;;;;;;;14.35;7.60;;;;;;;10.17;75.74;101112.50;1784606;80;20998;-73
2023/10/03 01:52:07;;;;;;;17.35;7.30;;;;;;;10.12;75.72;101112.70;1784586;79;21030;-71
2023/10/03 01:54:38;;;;;;;16.10;7.22;;;;;;;10.07;75.89;101119.22;1784516;80;21081;-70
2023/10/03 01:57:09;;;;;;;13.43;7.03;;;;;;;10.04;75.97;101117.69;1784384;79;21521;-71
2023/10/03 01:59:38;;;;;;;16.67;7.45;;;;;;;10.01;76.01;101115.82;1784814;80;21062;-70
2023/10/03 02:02:07;;;;;;;13.50;7.15;;;;;;;9.95;76.03;101113.27;1784785;80;21006;-71
2023/10/03 02:04:37;;;;;;;16.10;6.97;;;;;;;9.89;76.19;101112.61;1694318;83;21081;-71
2023/10/03 02:07:06;;;;;;;16.15;7.17;;;;;;;9.88;76.39;101111.41;1718237;83;21115;-71
2023/10/03 02:09:35;;;;;;;12.95;6.67;;;;;;;9.88;76.50;101107.31;1718150;82;21030;-70
2023/10/03 02:12:06;;;;;;;14.47;6.90;;;;;;;9.90;76.59;101115.69;1718387;83;21041;-72
2023/10/03 02:14:36;;;;;;;15.45;7.10;;;;;;;9.93;76.59;101106.27;1718228;83;21070;-72
2023/10/03 02:17:06;;;;;;;16.07;6.92;;;;;;;9.96;76.52;101114.13;1718537;83;21536;-70
2023/10/03 02:19:35;;;;;;;20.17;7.35;;;;;;;9.95;76.37;101112.42;1718399;83;21465;-72
2023/10/03 02:22:04;;;;;;;14.70;6.87;;;;;;;9.93;76.34;101117.22;1732446;80;21450;-71
2023/10/03 02:24:36;;;;;;;17.67;7.00;;;;;;;9.89;76.42;101113.12;1787336;80;21588;-71
2023/10/03 02:27:09;;;;;;;15.00;7.05;;;;;;;9.83;76.57;101126.48;1788317;80;21061;-70
2023/10/03 02:29:38;;;;;;;16.48;7.42;;;;;;;9.78;76.59;101121.20;1788179;80;21462;-70
2023/10/03 02:32:08;;;;;;;13.45;6.62;;;;;;;9.73;76.75;101124.42;1762317;80;21062;-71
2023/10/03 02:34:37;;;;;;;15.13;6.92;;;;;;;9.70;76.75;101122.04;1788471;80;21422;-71
2023/10/03 02:37:06;;;;;;;12.25;6.95;;;;;;;9.67;76.74;101115.55;1788201;80;21038;-70
2023/10/03 02:39:36;;;;;;;14.45;6.83;;;;;;;9.62;76.79;101112.48;1788265;80;21022;-70
2023/10/03 02:42:10;;;;;;;15.20;6.78;;;;;;;9.58;76.89;101116.59;1788275;80;21544;-72
2023/10/03 02:44:37;;;;;;;15.30;6.42;;;;;;;9.61;77.05;101116.76;1788260;80;21558;-71
2023/10/03 02:47:06;;;;;;;15.40;7.00;;;;;;;9.62;77.10;101115.21;1788200;80;21021;-70
2023/10/03 02:49:35;;;;;;;13.08;6.78;;;;;;;9.60;77.07;101113.68;1788276;80;21002;-71
2023/10/03 02:52:05;;;;;;;15.38;7.00;;;;;;;9.57;77.09;101111.29;1788543;80;21046;-70
2023/10/03 02:54:34;;;;;;;13.55;6.83;;;;;;;9.55;77.18;101112.83;1788270;80;21065;-69
2023/10/03 02:57:04;;;;;;;15.90;7.35;;;;;;;9.52;77.14;101114.03;1788441;80;21541;-70
2023/10/03 02:59:33;;;;;;;13.90;6.35;;;;;;;9.52;77.25;101120.02;1788320;80;21521;-69
2023/10/03 03:02:05;;;;;;;15.58;6.25;;;;;;;9.53;77.41;101113.01;1788377;80;21073;-72
2023/10/03 03:04:34;;;;;;;13.68;6.60;;;;;;;9.54;77.42;101118.81;1788230;80;21461;-70
2023/10/03 03:07:04;;;;;;;15.63;6.67;;;;;;;9.55;77.48;101122.41;1788319;80;21065;-71
2023/10/03 03:09:36;;;;;;;13.22;6.42;;;;;;;9.56;77.48;101123.27;1788421;80;21552;-70
2023/10/03 03:12:06;;;;;;;17.70;6.67;;;;;;;9.54;77.52;101125.66;1788172;80;20998;-71
2023/10/03 03:14:35;;;;;;;14.38;6.85;;;;;;;9.55;77.45;101123.77;1788485;80;21026;-71
2023/10/03 03:17:13;;;;;;;16.05;6.78;;;;;;;9.53;77.45;101125.83;1788273;80;21034;-72
2023/10/03 03:19:36;;;;;;;12.00;5.92;;;;;;;9.51;77.31;101128.74;1787066;80;21018;-70
2023/10/03 03:22:06;;;;;;;15.80;6.30;;;;;;;9.49;77.24;101132.16;1788242;80;21034;-71
2023/10/03 03:24:36;;;;;;;15.03;6.15;;;;;;;9.42;77.19;101127.55;1788172;79;21014;-71
2023/10/03 03:27:11;;;;;;;15.15;6.62;;;;;;;9.33;77.30;101126.70;1788394;80;21018;-70
2023/10/03 03:29:36;;;;;;;13.05;5.95;;;;;;;9.33;77.55;101124.48;1787979;80;21022;-70
2023/10/03 03:32:05;;;;;;;12.70;6.22;;;;;;;9.35;77.69;101125.17;1788184;80;21038;-71
2023/10/03 03:34:34;;;;;;;14.58;6.53;;;;;;;9.37;77.76;101116.28;1788306;80;21056;-70
2023/10/03 03:37:21;;;;;;;13.22;6.33;;;;;;;9.39;77.74;101116.95;1788279;80;21049;-70
2023/10/03 03:39:33;;;;;;;13.72;6.65;;;;;;;9.38;77.75;101108.41;1785127;80;21414;-71
2023/10/03 03:42:02;;;;;;;12.63;5.72;;;;;;;9.41;77.80;101106.70;1788226;80;21025;-71
2023/10/03 03:44:33;;;;;;;13.83;6.67;;;;;;;9.40;77.73;101109.09;1788338;80;21013;-71
2023/10/03 03:47:04;;;;;;;12.15;6.25;;;;;;;9.41;77.82;101113.02;1788235;80;21089;-72
2023/10/03 03:49:33;;;;;;;14.00;6.15;;;;;;;9.44;77.93;101114.05;1788382;80;21503;-71
2023/10/03 03:52:05;;;;;;;11.83;5.47;;;;;;;9.49;78.03;101114.38;1788177;80;21101;-73
2023/10/03 03:54:34;;;;;;;14.10;5.87;;;;;;;9.52;77.93;101114.03;1788323;80;21078;-71
2023/10/03 03:57:05;;;;;;;12.10;6.00;;;;;;;9.54;77.87;101111.13;1725878;83;21479;-71
2023/10/03 03:59:35;;;;;;;12.53;6.40;;;;;;;9.54;77.79;101111.98;1725932;83;21560;-71
2023/10/03 04:02:04;;;;;;;15.63;6.33;;;;;;;9.56;77.75;101114.54;1725940;83;21046;-70
2023/10/03 04:04:34;;;;;;;11.60;5.83;;;;;;;9.57;77.73;101109.41;1726035;83;21084;-70
2023/10/03 04:07:03;;;;;;;15.23;5.78;;;;;;;9.59;77.70;101111.45;1726222;83;21064;-69
2023/10/03 04:09:35;;;;;;;12.68;5.70;;;;;;;9.62;77.67;101107.00;1726029;83;21492;-70
2023/10/03 04:12:05;;;;;;;15.40;6.42;;;;;;;9.63;77.41;101114.70;1725999;83;21030;-71
2023/10/03 04:14:35;;;;;;;14.90;6.55;;;;;;;9.58;77.30;101114.37;1740628;80;21081;-71
2023/10/03 04:17:05;;;;;;;13.65;5.80;;;;;;;9.53;77.28;101112.16;1788437;80;21084;-69
2023/10/03 04:19:35;;;;;;;13.08;6.40;;;;;;;9.52;77.31;101111.81;1788295;80;21065;-69
2023/10/03 04:22:06;;;;;;;12.98;5.87;;;;;;;9.51;77.36;101121.05;1788567;80;21109;-69
2023/10/03 04:24:35;;;;;;;13.38;5.87;;;;;;;9.51;77.33;101121.05;1788131;80;21634;-71
2023/10/03 04:27:07;;;;;;;19.52;6.10;;;;;;;9.46;77.35;101124.81;1788366;80;21057;-70
2023/10/03 04:29:36;;;;;;;11.88;5.20;;;;;;;9.43;77.44;101125.16;1788233;80;21065;-69
2023/10/03 04:32:05;;;;;;;18.17;6.62;;;;;;;9.41;77.50;101122.59;1788331;80;21022;-70
2023/10/03 04:34:34;;;;;;;16.97;6.55;;;;;;;9.42;77.62;101127.55;1788238;80;21014;-71
2023/10/03 04:37:03;;;;;;;16.60;6.37;;;;;;;9.44;77.74;101129.61;1788223;80;21053;-70
2023/10/03 04:39:34;;;;;;;16.65;6.05;;;;;;;9.47;77.82;101133.36;1788272;80;21038;-71
2023/10/03 04:42:05;;;;;;;15.90;6.35;;;;;;;9.51;77.90;101124.64;1788260;80;21037;-71
2023/10/03 04:44:34;;;;;;;11.00;5.72;;;;;;;9.57;77.89;101126.34;1788241;80;21466;-72
2023/10/03 04:47:03;;;;;;;13.15;5.78;;;;;;;9.56;77.86;101136.43;1788302;80;21037;-71
2023/10/03 04:49:33;;;;;;;15.53;6.00;;;;;;;9.58;77.95;101139.84;1788157;80;21065;-71
2023/10/03 04:52:03;;;;;;;11.28;5.30;;;;;;;9.60;78.08;101135.56;1788077;80;21477;-70
2023/10/03 04:54:34;;;;;;;13.25;5.55;;;;;;;9.67;78.28;101143.42;1788212;80;21061;-71
2023/10/03 04:57:03;;;;;;;17.37;6.05;;;;;;;9.74;78.34;101143.92;1788181;80;21091;-73
2023/10/03 04:59:33;;;;;;;19.05;5.90;;;;;;;9.83;78.33;101138.80;1788360;80;21073;-71
2023/10/03 05:02:03;;;;;;;16.02;6.20;;;;;;;9.93;78.26;101135.02;1788182;80;21469;-70
2023/10/03 05:04:32;;;;;;;13.18;5.55;;;;;;;10.01;78.09;101128.14;1788131;80;21480;-71
2023/10/03 05:07:02;;;;;;;17.48;7.03;;;;;;;10.08;78.03;101127.26;1788113;80;21063;-71
2023/10/03 05:09:32;;;;;;;17.23;6.42;;;;;;;10.14;77.83;101136.13;1788164;80;21057;-71
2023/10/03 05:12:04;;;;;;;14.23;5.97;;;;;;;10.18;77.72;101136.11;1788220;80;21037;-71
2023/10/03 05:14:36;;;;;;;15.88;6.47;;;;;;;10.22;77.70;101132.54;1788315;80;21086;-71
2023/10/03 05:17:05;;;;;;;20.30;5.97;;;;;;;10.28;77.62;101131.83;1761274;80;21081;-71
2023/10/03 05:19:36;;;;;;;12.53;5.50;;;;;;;10.35;77.51;101141.56;1788336;80;21002;-71
2023/10/03 05:22:08;;;;;;;15.48;5.62;;;;;;;10.42;77.41;101139.33;1788184;80;21030;-70
2023/10/03 05:24:37;;;;;;;15.63;5.70;;;;;;;10.50;77.24;101140.32;1792406;80;21053;-73
2023/10/03 05:27:07;;;;;;;12.73;5.80;;;;;;;10.54;77.04;101130.70;1799046;80;21013;-72
2023/10/03 05:29:37;;;;;;;15.93;6.20;;;;;;;10.58;77.03;101137.02;1798994;80;21588;-72
2023/10/03 05:32:07;;;;;;;21.87;6.58;;;;;;;10.61;77.00;101142.14;1799171;80;21017;-72
2023/10/03 05:34:37;;;;;;;14.45;5.97;;;;;;;10.67;77.01;101143.31;1798966;80;21526;-71
2023/10/03 05:37:07;;;;;;;17.20;6.53;;;;;;;10.74;76.89;101138.81;1724088;80;21045;-69
2023/10/03 05:39:37;;;;;;;20.90;7.30;;;;;;;10.82;76.85;101142.87;1799052;80;21069;-70
2023/10/03 05:42:06;;;;;;;18.27;7.58;;;;;;;10.89;76.72;101132.88;1798938;80;21023;-72
2023/10/03 05:44:37;;;;;;;17.77;6.95;;;;;;;10.97;76.53;101127.86;1799147;80;21085;-70
2023/10/03 05:47:07;;;;;;;17.82;7.45;;;;;;;11.02;76.30;101130.91;1799158;80;21033;-70
2023/10/03 05:49:37;;;;;;;19.70;6.50;;;;;;;11.03;76.21;101129.35;1771508;80;21084;-72
2023/10/03 05:52:08;;;;;;;19.17;6.70;;;;;;;11.09;76.04;101126.42;1799132;80;21041;-72
2023/10/03 05:54:38;;;;;;;21.90;6.83;;;;;;;11.14;75.94;101129.47;1798974;80;21037;-71
2023/10/03 05:57:08;;;;;;;19.35;6.12;;;;;;;11.24;75.80;101142.94;1799134;80;21081;-71
2023/10/03 05:59:37;;;;;;;16.12;6.70;;;;;;;11.34;75.52;101144.91;1799312;78;21077;-71
2023/10/03 06:02:06;;;;;;;26.87;6.87;;;;;;;11.41;75.20;101144.50;1771439;80;21045;-71
2023/10/03 06:04:38;;;;;;;20.55;6.53;;;;;;;11.50;75.01;101140.64;1773035;80;21041;-71
2023/10/03 06:07:07;;;;;;;17.23;6.53;;;;;;;11.58;74.80;101141.94;1798938;80;21069;-72
2023/10/03 06:09:37;;;;;;;21.90;7.85;;;;;;;11.67;74.52;101142.72;1799134;80;21048;-72
2023/10/03 06:12:08;;;;;;;18.85;6.50;;;;;;;11.74;74.28;101150.56;1799161;80;21057;-72
2023/10/03 06:14:40;;;;;;;17.62;6.60;;;;;;;11.82;74.20;101160.64;1799046;80;21060;-72
2023/10/03 06:17:09;;;;;;;26.62;8.53;;;;;;;11.92;74.08;101150.24;1772486;80;21125;-71
2023/10/03 06:19:38;;;;;;;16.27;6.75;;;;;;;11.97;73.78;101145.89;1798925;80;21057;-71
2023/10/03 06:22:08;;;;;;;17.77;7.37;;;;;;;12.03;73.59;101141.02;1799183;80;21041;-72
2023/10/03 06:24:38;;;;;;;16.27;6.50;;;;;;;12.11;73.39;101145.56;1795189;80;21061;-71
2023/10/03 06:27:10;;;;;;;17.80;6.83;;;;;;;12.20;73.29;101146.31;1784532;79;21073;-72
2023/10/03 06:29:40;;;;;;;20.30;8.03;;;;;;;12.27;73.17;101141.77;1784487;80;21013;-71
2023/10/03 06:32:11;;;;;;;20.72;7.80;;;;;;;12.34;73.04;101135.31;1784548;80;21078;-71
2023/10/03 06:34:40;;;;;;;21.65;7.53;;;;;;;12.43;72.80;101133.86;1784566;80;21070;-71
2023/10/03 06:37:10;;;;;;;21.95;7.28;;;;;;;12.50;72.60;101140.30;1784465;79;21572;-71
2023/10/03 06:39:42;;;;;;;23.20;7.95;;;;;;;12.57;72.38;101143.45;1784861;80;21038;-71
2023/10/03 06:42:11;;;;;;;22.75;8.50;;;;;;;12.65;72.21;101142.48;1784491;80;21050;-69
2023/10/03 06:44:41;;;;;;;28.83;9.53;;;;;;;12.73;72.00;101137.40;1784555;80;21054;-70
2023/10/03 06:47:11;;;;;;;27.95;9.50;;;;;;;12.83;71.81;101148.41;1784972;80;21026;-70
2023/10/03 06:49:41;;;;;;;29.30;10.25;;;;;;;12.91;71.60;101140.05;1784590;80;21038;-70
2023/10/03 06:52:11;;;;;;;29.82;9.33;;;;;;;12.99;71.33;101140.44;1755206;80;21261;-70
2023/10/03 06:54:42;;;;;;;24.85;9.00;;;;;;;13.08;71.14;101142.58;1784649;80;21070;-70
2023/10/03 06:57:12;;;;;;;27.35;9.00;;;;;;;13.15;70.93;101142.97;1784547;80;21037;-69
2023/10/03 06:59:43;;;;;;;27.05;10.35;;;;;;;13.25;70.67;101139.39;1784603;80;21033;-69
2023/10/03 07:02:13;;;;;;;20.65;7.55;;;;;;;13.34;70.41;101140.11;1784704;80;21057;-70
2023/10/03 07:04:44;;;;;;;21.45;7.37;;;;;;;13.43;70.02;101144.43;1784764;80;21025;-72
2023/10/03 07:07:14;;;;;;;19.62;7.40;;;;;;;13.52;69.57;101145.98;1784926;80;21531;-70
2023/10/03 07:09:44;;;;;;;18.82;6.65;;;;;;;13.63;69.16;101143.22;1783956;79;21085;-72
2023/10/03 07:12:13;;;;;;;16.10;6.65;;;;;;;13.73;68.75;101142.90;1784069;80;21121;-71
2023/10/03 07:14:46;;;;;;;23.75;6.70;;;;;;;13.81;68.33;101142.22;1784316;80;21057;-71
2023/10/03 07:17:14;;;;;;;24.90;7.12;;;;;;;13.89;67.78;101137.94;1784527;80;21517;-71
2023/10/03 07:19:48;;;;;;;29.32;8.60;;;;;;;13.98;67.13;101144.14;1784697;79;21117;-71
2023/10/03 07:22:21;;;;;;;24.87;7.45;;;;;;;14.08;66.31;101139.11;1784732;80;21033;-71
2023/10/03 07:24:51;;;;;;;22.13;8.60;;;;;;;14.16;65.82;101138.09;1784645;80;21026;-71
2023/10/03 07:27:21;;;;;;;19.85;6.95;;;;;;;14.24;65.31;101137.94;1784614;80;21018;-70
2023/10/03 07:29:52;;;;;;;18.27;6.80;;;;;;;14.33;64.92;101135.89;1784586;80;21073;-71
2023/10/03 07:32:22;;;;;;;19.90;6.53;;;;;;;14.40;64.27;101139.53;1784581;80;21062;-72
2023/10/03 07:34:53;;;;;;;14.60;6.10;;;;;;;14.45;63.68;101132.91;1784763;80;21478;-71
2023/10/03 07:37:22;;;;;;;18.35;6.55;;;;;;;14.50;63.40;101131.77;1784554;80;21065;-70
2023/10/03 07:39:51;;;;;;;17.65;5.92;;;;;;;14.57;62.85;101129.35;1784649;80;21005;-72
2023/10/03 07:42:23;;;;;;;11.63;5.08;;;;;;;14.66;62.58;101139.67;1784571;80;21418;-72
2023/10/03 07:44:53;;;;;;;12.15;4.67;;;;;;;14.74;61.82;101142.25;1784668;80;21077;-71
2023/10/03 07:47:22;;;;;;;15.83;4.92;;;;;;;14.94;61.34;101140.93;1805507;77;21458;-73
2023/10/03 07:49:51;;;;;;;11.28;4.72;;;;;;;15.28;60.69;101134.44;1801173;79;21023;-72
2023/10/03 07:52:27;;;;;;;12.75;4.62;;;;;;;15.72;60.02;101131.64;1746358;82;21007;-72
2023/10/03 07:55:00;;;;;;;13.85;4.83;;;;;;;16.20;58.44;101139.11;1750175;82;21545;-71
2023/10/03 07:57:30;;;;;;;15.32;5.05;;;;;;;16.73;56.90;101133.44;1747150;82;21070;-73
2023/10/03 07:59:59;;;;;;;16.37;4.60;;;;;;;17.17;55.83;101142.80;1778200;81;21098;-71
2023/10/03 08:02:32;;;;;;;8.13;4.30;;;;;;;17.57;54.29;101135.08;1815882;78;21014;-71
2023/10/03 08:05:02;;;;;;;12.65;4.95;;;;;;;17.88;53.27;101137.81;1813062;77;21034;-70
2023/10/03 08:07:33;;;;;;;12.20;4.83;;;;;;;18.23;52.38;101138.66;1810179;79;21066;-70
2023/10/03 08:10:05;;;;;;;10.78;4.20;;;;;;;18.55;51.90;101137.42;1741298;82;21095;-69
2023/10/03 08:12:38;;;;;;;13.15;5.28;;;;;;;18.87;50.80;101140.06;1741261;82;21032;-69
2023/10/03 08:15:20;;;;;;;13.68;5.40;;;;;;;19.19;49.91;101131.80;1740647;82;21068;-71
2023/10/03 08:17:57;;;;;;;13.18;6.15;;;;;;;19.54;48.75;101125.54;1811892;78;21022;-71
2023/10/03 08:20:23;;;;;;;10.93;4.60;;;;;;;19.84;47.68;101135.19;1811517;78;21030;-71
2023/10/03 08:22:55;;;;;;;9.70;4.60;;;;;;;20.05;47.06;101130.95;1787460;79;21026;-70
2023/10/03 08:25:25;;;;;;;13.93;4.97;;;;;;;20.19;46.48;101125.47;1747214;81;21232;-70
2023/10/03 08:27:55;;;;;;;13.13;5.67;;;;;;;20.26;45.54;101124.25;1726030;83;21018;-71
2023/10/03 08:30:27;;;;;;;11.33;4.75;;;;;;;20.26;45.26;101129.81;1747466;81;21063;-72
2023/10/03 08:33:04;;;;;;;10.05;5.20;;;;;;;20.24;45.74;101127.82;1747489;82;21127;-70
2023/10/03 08:35:34;;;;;;;10.80;4.87;;;;;;;20.24;44.99;101121.41;1747360;81;21031;-70
2023/10/03 08:38:07;;;;;;;17.45;4.30;;;;;;;20.19;44.83;101123.53;1747328;82;21059;-70
2023/10/03 08:40:40;;;;;;;8.98;4.20;;;;;;;20.18;44.90;101115.42;1747494;82;21055;-69
2023/10/03 08:43:11;;;;;;;14.07;4.83;;;;;;;20.15;44.66;101111.70;1746904;82;21476;-70
2023/10/03 08:45:52;;;;;;;14.33;5.22;;;;;;;20.11;44.52;101106.33;1747472;82;21066;-72
2023/10/03 08:48:15;;;;;;;12.25;4.03;;;;;;;20.01;44.15;101106.09;1746340;82;21090;-68
2023/10/03 08:50:46;;;;;;;11.83;4.42;;;;;;;19.94;44.38;101109.00;1747583;82;21050;-69
2023/10/03 08:53:16;;;;;;;11.65;4.97;;;;;;;19.85;44.02;101111.30;1747589;82;21070;-70
2023/10/03 08:55:47;;;;;;;9.00;4.37;;;;;;;19.71;44.12;101103.44;1729451;81;21035;-67
2023/10/03 08:58:25;;;;;;;12.47;5.20;;;;;;;19.62;44.23;101096.00;1778092;81;21511;-69
2023/10/03 09:01:26;;;;;;;13.40;4.53;;;;;;;19.59;44.40;101097.87;1778085;80;21056;-69
2023/10/03 09:03:50;;;;;;;11.90;4.53;;;;;;;19.52;44.06;101084.59;1766610;81;21063;-74
2023/10/03 09:06:20;;;;;;;17.32;5.45;;;;;;;19.42;44.22;101083.77;1748028;81;21479;-69
2023/10/03 09:09:08;;;;;;;12.85;4.62;;;;;;;19.31;43.95;101080.42;1778258;81;21063;-70
2023/10/03 09:11:43;;;;;;;9.38;4.47;;;;;;;19.19;44.28;101087.89;1777978;81;21079;-69
2023/10/03 09:14:19;;;;;;;12.25;4.67;;;;;;;19.10;44.16;101076.27;1778054;81;21063;-71
2023/10/03 09:16:59;;;;;;;13.08;5.33;;;;;;;19.06;44.64;101079.22;1778131;81;21059;-70
2023/10/03 09:19:28;;;;;;;13.25;4.75;;;;;;;19.04;44.66;101076.38;1775018;81;21028;-71
2023/10/03 09:21:54;;;;;;;8.80;4.33;;;;;;;19.02;44.71;101086.88;1776217;81;21035;-70
2023/10/03 09:24:25;;;;;;;9.68;4.83;;;;;;;18.97;44.71;101087.58;1778284;81;21055;-68
2023/10/03 09:27:07;;;;;;;13.58;5.80;;;;;;;18.92;44.77;101084.67;1725365;81;21131;-68
2023/10/03 09:29:31;;;;;;;13.83;5.65;;;;;;;18.90;44.80;101080.73;1776035;81;21089;-68
2023/10/03 09:32:13;;;;;;;14.68;5.83;;;;;;;18.90;44.82;101082.67;1778085;81;21498;-69
2023/10/03 09:34:47;;;;;;;10.15;4.65;;;;;;;18.90;45.05;101088.22;1778147;80;21051;-69
2023/10/03 09:37:17;;;;;;;10.40;4.25;;;;;;;18.94;45.11;101086.66;1777671;81;21078;-70
2023/10/03 09:39:49;;;;;;;9.40;4.35;;;;;;;18.97;44.99;101085.66;1777974;81;21616;-68
2023/10/03 09:42:23;;;;;;;11.95;5.12;;;;;;;18.98;45.25;101082.33;1778190;81;21058;-70
2023/10/03 09:44:51;;;;;;;10.88;4.15;;;;;;;18.99;45.47;101079.31;1748480;81;21071;-69
2023/10/03 09:47:27;;;;;;;10.82;4.83;;;;;;;19.02;45.57;101072.98;1778094;81;21031;-68
2023/10/03 09:49:58;;;;;;;8.80;5.00;;;;;;;19.04;45.43;101077.22;1777790;81;21080;-71
2023/10/03 09:52:25;;;;;;;12.65;5.53;;;;;;;19.03;45.33;101076.91;1777688;81;21502;-68
2023/10/03 09:54:54;;;;;;;9.08;4.55;;;;;;;19.05;45.35;101085.86;1777688;81;21047;-70
2023/10/03 09:57:32;;;;;;;9.05;4.30;;;;;;;19.10;45.01;101082.37;1746876;82;21107;-70
2023/10/03 09:59:58;;;;;;;9.70;5.22;;;;;;;19.14;44.99;101080.27;1746737;81;21495;-69
2023/10/03 10:02:45;;;;;;;11.35;4.78;;;;;;;19.20;44.13;101072.91;1746980;81;21075;-72
2023/10/03 10:05:19;;;;;;;11.18;4.95;;;;;;;19.21;44.14;101071.28;1746195;82;21063;-70
2023/10/03 10:08:09;;;;;;;10.00;5.30;;;;;;;19.23;43.73;101071.05;1747397;82;21019;-71
2023/10/03 10:10:41;;;;;;;11.53;5.17;;;;;;;19.26;43.22;101068.63;1747410;82;21472;-70
2023/10/03 10:13:20;;;;;;;17.50;5.35;;;;;;;19.31;43.18;101065.14;1747167;82;21075;-72
2023/10/03 10:16:15;;;;;;;12.13;5.78;;;;;;;19.32;43.12;101061.27;1746925;82;21062;-72
2023/10/03 10:18:55;;;;;;;10.70;4.97;;;;;;;19.35;42.83;101067.74;1747527;82;21239;-72
2023/10/03 10:21:37;;;;;;;11.80;5.25;;;;;;;19.32;42.16;101062.12;1747136;81;21384;-71
2023/10/03 10:24:20;;;;;;;14.10;5.58;;;;;;;19.32;42.10;101051.55;1747504;82;21091;-70
2023/10/03 10:26:59;;;;;;;16.15;6.50;;;;;;;19.34;42.21;101046.59;1750986;82;21106;-72
2023/10/03 10:29:28;;;;;;;11.63;5.83;;;;;;;19.39;42.46;101046.72;1753151;81;21467;-72
2023/10/03 10:31:58;;;;;;;10.75;5.55;;;;;;;19.48;42.86;101043.05;1726679;82;21134;-70
2023/10/03 10:34:32;;;;;;;12.20;5.67;;;;;;;19.55;42.67;101039.66;1697879;82;21079;-72
2023/10/03 10:37:10;;;;;;;12.88;5.83;;;;;;;19.59;42.78;101027.82;1753003;82;21063;-69
2023/10/03 10:40:10;;;;;;;11.12;5.40;;;;;;;19.63;42.59;101033.74;1752956;81;21110;-71
2023/10/03 10:42:59;;;;;;;11.55;5.08;;;;;;;19.65;42.73;101027.39;1725747;82;21063;-71
2023/10/03 10:45:37;;;;;;;14.28;5.58;;;;;;;19.72;42.68;101021.70;1752947;81;21111;-69
2023/10/03 10:47:59;;;;;;;14.87;5.35;;;;;;;19.75;42.38;101022.61;1751817;82;21051;-69
2023/10/03 10:50:29;;;;;;;12.30;5.30;;;;;;;19.74;42.46;101023.16;1753184;82;20988;-72
2023/10/03 10:53:05;;;;;;;12.85;5.25;;;;;;;19.73;42.68;101013.13;1697335;82;21463;-71
2023/10/03 10:55:29;;;;;;;12.58;5.40;;;;;;;19.69;42.72;101000.80;1760001;80;21051;-70
2023/10/03 10:58:08;;;;;;;9.95;4.75;;;;;;;19.66;42.65;100999.05;1783970;80;21030;-71
2023/10/03 11:00:37;;;;;;;13.68;5.37;;;;;;;19.59;42.83;100987.51;1783865;80;21059;-70
2023/10/03 11:03:07;;;;;;;11.85;5.37;;;;;;;19.57;43.08;100991.08;1783913;80;21071;-69
2023/10/03 11:05:48;;;;;;;9.83;5.17;;;;;;;19.57;43.16;100991.62;1783831;80;21090;-71
2023/10/03 11:08:18;;;;;;;11.43;4.95;;;;;;;19.56;43.31;100985.76;1756214;80;21117;-70
2023/10/03 11:10:54;;;;;;;45.52;19.55;;;;;;;19.55;43.49;100995.19;1783956;80;21015;-69
2023/10/03 11:13:24;;;;;;;13.75;5.62;;;;;;;19.55;43.52;100988.23;1757180;80;21059;-70
2023/10/03 11:15:54;;;;;;;11.63;5.20;;;;;;;19.56;43.59;100981.59;1784008;80;21419;-70
2023/10/03 11:18:31;;;;;;;10.80;5.22;;;;;;;19.59;43.60;100986.66;1783862;80;21035;-70
2023/10/03 11:21:04;;;;;;;12.13;6.12;;;;;;;19.61;43.31;100985.87;1756057;80;21106;-70
2023/10/03 11:23:34;;;;;;;12.40;5.08;;;;;;;19.60;43.27;100978.08;1783718;80;21497;-70
2023/10/03 11:26:12;;;;;;;12.20;5.53;;;;;;;19.57;42.88;100972.16;1783788;80;21062;-71
2023/10/03 11:28:57;;;;;;;15.60;5.20;;;;;;;19.52;43.09;100979.84;1784087;80;21083;-72
2023/10/03 11:31:40;;;;;;;9.35;4.80;;;;;;;19.52;43.21;100977.57;1783930;80;21213;-72
2023/10/03 11:34:11;;;;;;;9.63;5.00;;;;;;;19.50;43.45;100976.94;1783831;80;21004;-69
2023/10/03 11:36:46;;;;;;;8.48;4.50;;;;;;;19.52;43.36;100978.95;1783800;80;21067;-71
2023/10/03 11:39:23;;;;;;;12.07;5.42;;;;;;;19.53;43.58;100969.02;1783959;80;21011;-72